createdAt,value
2022-12-09T00:01:07.715Z,20.37
2022-12-09T00:03:36.256Z,20.50
2022-12-09T00:06:09.189Z,19.73
2022-12-09T00:08:37.658Z,19.77
2022-12-09T00:11:06.135Z,20.43
2022-12-09T00:13:34.559Z,20.67
2022-12-09T00:16:06.732Z,20.50
2022-12-09T00:18:35.352Z,19.50
2022-12-09T00:21:14.541Z,20.17
2022-12-09T00:23:44.300Z,19.80
2022-12-09T00:26:12.979Z,19.77
2022-12-09T00:28:41.635Z,20.43
2022-12-09T00:31:10.638Z,20.63
2022-12-09T00:33:39.045Z,19.17
2022-12-09T00:36:10.480Z,20.63
2022-12-09T00:38:40.341Z,21.63
2022-12-09T00:41:08.915Z,20.77
2022-12-09T00:43:37.182Z,21.07
2022-12-09T00:46:06.064Z,19.17
2022-12-09T00:48:38.669Z,20.23
2022-12-09T00:51:07.350Z,20.53
2022-12-09T00:53:35.840Z,22.40
2022-12-09T00:56:05.528Z,21.97
2022-12-09T00:58:33.911Z,21.20
2022-12-09T01:01:02.381Z,20.03
2022-12-09T01:03:31.108Z,19.80
2022-12-09T01:05:59.580Z,20.53
2022-12-09T01:08:27.926Z,22.07
2022-12-09T01:10:56.364Z,22.07
2022-12-09T01:13:25.982Z,20.63
2022-12-09T01:15:54.579Z,21.47
2022-12-09T01:18:23.029Z,22.47
2022-12-09T01:20:57.701Z,21.17
2022-12-09T01:23:26.154Z,21.43
2022-12-09T01:25:54.613Z,21.77
2022-12-09T01:28:23.142Z,21.90
2022-12-09T01:30:53.062Z,21.33
2022-12-09T01:33:21.593Z,21.13
2022-12-09T01:35:49.881Z,22.30
2022-12-09T01:38:18.062Z,22.63
2022-12-09T01:40:47.667Z,21.70
2022-12-09T01:43:19.138Z,20.67
2022-12-09T01:45:47.926Z,21.70
2022-12-09T01:48:18.840Z,20.57
2022-12-09T01:50:49.500Z,21.23
2022-12-09T01:53:19.786Z,21.60
2022-12-09T01:55:48.077Z,20.87
2022-12-09T01:58:16.664Z,22.13
2022-12-09T02:00:45.217Z,22.57
2022-12-09T02:03:20.703Z,21.40
2022-12-09T02:05:50.565Z,21.83
2022-12-09T02:08:19.837Z,21.87
2022-12-09T02:10:57.854Z,20.70
2022-12-09T02:13:29.860Z,22.70
2022-12-09T02:15:59.695Z,22.07
2022-12-09T02:18:31.000Z,22.83
2022-12-09T02:21:02.874Z,23.07
2022-12-09T02:23:35.066Z,22.43
2022-12-09T02:26:09.031Z,22.77
2022-12-09T02:28:55.114Z,22.90
2022-12-09T02:31:30.942Z,22.60
2022-12-09T02:34:10.472Z,22.80
2022-12-09T02:36:43.192Z,21.43
2022-12-09T02:39:11.869Z,22.23
2022-12-09T02:41:43.056Z,21.10
2022-12-09T02:44:14.400Z,21.43
2022-12-09T02:46:43.463Z,22.03
2022-12-09T02:49:14.213Z,21.07
2022-12-09T02:51:43.417Z,20.13
2022-12-09T02:54:13.667Z,20.90
2022-12-09T02:56:43.477Z,21.40
2022-12-09T02:59:11.789Z,20.53
2022-12-09T03:01:43.296Z,21.43
2022-12-09T03:04:16.913Z,20.73
2022-12-09T03:06:48.558Z,21.07
2022-12-09T03:09:20.123Z,21.03
2022-12-09T03:11:49.540Z,20.77
2022-12-09T03:14:18.967Z,20.20
2022-12-09T03:16:49.836Z,21.00
2022-12-09T03:19:22.703Z,20.93
2022-12-09T03:21:52.475Z,20.20
2022-12-09T03:24:24.296Z,21.50
2022-12-09T03:26:53.841Z,20.30
2022-12-09T03:29:23.969Z,20.23
2022-12-09T03:31:53.388Z,20.17
2022-12-09T03:34:25.145Z,21.43
2022-12-09T03:36:54.529Z,21.00
2022-12-09T03:39:26.259Z,20.77
2022-12-09T03:41:57.320Z,19.10
2022-12-09T03:44:27.765Z,20.10
2022-12-09T03:46:56.448Z,20.73
2022-12-09T03:49:26.489Z,21.23
2022-12-09T03:51:57.508Z,20.50
2022-12-09T03:54:28.391Z,20.93
2022-12-09T03:56:58.499Z,20.13
2022-12-09T03:59:30.026Z,21.30
2022-12-09T04:01:59.162Z,21.40
2022-12-09T04:04:29.626Z,21.73
2022-12-09T04:06:58.149Z,22.13
2022-12-09T04:09:26.454Z,21.10
2022-12-09T04:11:54.781Z,21.47
2022-12-09T04:14:23.090Z,21.40
2022-12-09T04:16:51.528Z,22.90
2022-12-09T04:19:19.760Z,21.13
2022-12-09T04:21:49.463Z,20.93
2022-12-09T04:24:17.987Z,22.27
2022-12-09T04:26:46.241Z,21.83
2022-12-09T04:29:14.886Z,21.37
2022-12-09T04:31:43.257Z,20.80
2022-12-09T04:34:11.617Z,21.30
2022-12-09T04:36:39.861Z,21.43
2022-12-09T04:39:09.551Z,21.40
2022-12-09T04:41:38.185Z,21.40
2022-12-09T04:44:07.136Z,21.00
2022-12-09T04:46:35.856Z,21.27
2022-12-09T04:49:04.691Z,20.90
2022-12-09T04:51:39.418Z,22.10
2022-12-09T04:54:13.135Z,21.73
2022-12-09T04:56:41.755Z,22.73
2022-12-09T04:59:10.429Z,22.87
2022-12-09T05:01:38.786Z,22.90
2022-12-09T05:04:07.920Z,21.53
2022-12-09T05:06:36.642Z,21.83
2022-12-09T05:09:05.338Z,23.47
2022-12-09T05:11:35.334Z,23.50
2022-12-09T05:14:03.807Z,23.77
2022-12-09T05:16:32.409Z,22.63
2022-12-09T05:19:01.717Z,23.30
2022-12-09T05:21:30.436Z,23.83
2022-12-09T05:23:59.583Z,23.80
2022-12-09T05:26:28.270Z,23.83
2022-12-09T05:28:58.459Z,25.17
2022-12-09T05:31:27.000Z,24.17
2022-12-09T05:33:55.587Z,24.70
2022-12-09T05:36:25.491Z,25.67
2022-12-09T05:38:54.674Z,24.53
2022-12-09T05:41:23.773Z,24.60
2022-12-09T05:43:52.659Z,23.57
2022-12-09T05:46:23.370Z,24.27
2022-12-09T05:48:52.428Z,23.57
2022-12-09T05:51:23.852Z,25.70
2022-12-09T05:53:53.103Z,24.30
2022-12-09T05:56:22.500Z,33.73
2022-12-09T05:58:51.548Z,30.47
2022-12-09T06:01:20.457Z,32.03
2022-12-09T06:03:51.077Z,26.97
2022-12-09T06:06:20.926Z,24.50
2022-12-09T06:08:50.197Z,25.20
2022-12-09T06:11:19.762Z,23.73
2022-12-09T06:13:49.062Z,24.17
2022-12-09T06:16:19.709Z,24.87
2022-12-09T06:18:50.456Z,24.33
2022-12-09T06:21:20.902Z,24.27
2022-12-09T06:23:50.708Z,24.90
2022-12-09T06:26:20.838Z,25.00
2022-12-09T06:28:50.222Z,26.40
2022-12-09T06:31:19.785Z,25.47
2022-12-09T06:33:55.875Z,23.90
2022-12-09T06:36:25.983Z,25.23
2022-12-09T06:38:55.019Z,24.40
2022-12-09T06:41:24.413Z,24.37
2022-12-09T06:43:53.268Z,24.47
2022-12-09T06:46:24.652Z,24.20
2022-12-09T06:48:55.241Z,24.60
2022-12-09T06:51:25.391Z,25.37
2022-12-09T06:53:54.416Z,24.93
2022-12-09T06:56:23.250Z,24.50
2022-12-09T06:58:52.210Z,25.37
2022-12-09T07:01:21.976Z,28.10
2022-12-09T07:03:51.824Z,32.00
2022-12-09T07:06:25.243Z,27.97
2022-12-09T07:08:54.100Z,26.07
2022-12-09T07:11:22.790Z,25.07
2022-12-09T07:13:51.581Z,24.87
2022-12-09T07:16:20.183Z,25.27
2022-12-09T07:18:49.612Z,23.77
2022-12-09T07:21:19.492Z,23.97
2022-12-09T07:23:53.319Z,24.50
2022-12-09T07:26:22.150Z,25.70
2022-12-09T07:28:51.315Z,28.27
2022-12-09T07:31:21.335Z,27.53
2022-12-09T07:33:50.228Z,28.03
2022-12-09T07:36:21.486Z,29.97
2022-12-09T07:38:51.073Z,29.33
2022-12-09T07:41:21.196Z,29.53
2022-12-09T07:43:49.868Z,28.80
2022-12-09T07:46:20.769Z,28.57
2022-12-09T07:48:55.425Z,28.77
2022-12-09T07:51:25.412Z,27.10
2022-12-09T07:53:54.819Z,26.87
2022-12-09T07:56:24.850Z,26.70
2022-12-09T07:58:54.812Z,25.43
2022-12-09T08:01:25.249Z,23.87
2022-12-09T08:03:54.637Z,25.23
2022-12-09T08:06:24.666Z,24.63
2022-12-09T08:08:53.931Z,24.50
2022-12-09T08:11:24.448Z,23.07
2022-12-09T08:13:55.143Z,25.80
2022-12-09T08:16:24.414Z,24.83
2022-12-09T08:18:55.553Z,25.23
2022-12-09T08:21:24.949Z,24.43
2022-12-09T08:23:56.141Z,25.40
2022-12-09T08:26:29.391Z,25.13
2022-12-09T08:28:59.821Z,25.10
2022-12-09T08:31:34.558Z,25.67
2022-12-09T08:34:09.004Z,26.00
2022-12-09T08:36:38.025Z,25.87
2022-12-09T08:39:07.044Z,25.03
2022-12-09T08:41:38.883Z,25.67
2022-12-09T08:44:13.077Z,25.90
2022-12-09T08:46:42.947Z,26.20
2022-12-09T08:49:13.430Z,25.87
2022-12-09T08:51:42.043Z,28.40
2022-12-09T08:54:10.732Z,26.60
2022-12-09T08:56:40.164Z,28.67
2022-12-09T08:59:10.441Z,27.13
2022-12-09T09:01:39.095Z,26.83
2022-12-09T09:04:09.306Z,26.67
2022-12-09T09:06:39.954Z,28.23
2022-12-09T09:09:09.286Z,27.00
2022-12-09T09:11:38.499Z,26.00
2022-12-09T09:14:06.736Z,26.93
2022-12-09T09:16:37.225Z,30.93
2022-12-09T09:19:06.734Z,29.03
2022-12-09T09:21:36.218Z,27.80
2022-12-09T09:24:15.590Z,28.43
2022-12-09T09:26:52.371Z,28.20
2022-12-09T09:29:25.557Z,28.13
2022-12-09T09:32:00.341Z,29.43
2022-12-09T09:35:02.495Z,28.63
2022-12-09T09:38:01.429Z,29.33
2022-12-09T09:41:11.448Z,29.43
2022-12-09T09:46:46.893Z,28.37
2022-12-09T09:49:44.749Z,27.90
2022-12-09T09:56:04.928Z,28.00
2022-12-09T09:58:45.687Z,28.17
2022-12-09T10:01:36.754Z,30.77
2022-12-09T10:04:14.235Z,29.50
2022-12-09T10:07:37.585Z,29.93
2022-12-09T10:19:43.634Z,29.00
2022-12-09T10:22:44.719Z,29.43
2022-12-09T10:25:23.037Z,29.93
2022-12-09T10:27:54.628Z,26.40
2022-12-09T10:30:23.476Z,26.93
2022-12-09T10:32:55.455Z,26.93
2022-12-09T10:35:25.585Z,25.80
2022-12-09T10:37:55.764Z,26.03
2022-12-09T10:40:31.545Z,26.33
2022-12-09T10:43:31.313Z,25.63
2022-12-09T10:48:54.235Z,24.83
2022-12-09T10:51:24.898Z,23.97
2022-12-09T10:53:55.780Z,24.17
2022-12-09T10:56:27.493Z,25.20
2022-12-09T10:59:10.576Z,22.03
2022-12-09T11:01:49.720Z,25.77
2022-12-09T11:04:23.787Z,25.03
2022-12-09T11:06:59.158Z,25.13
2022-12-09T11:09:31.262Z,25.03
2022-12-09T11:12:02.448Z,26.17
2022-12-09T11:14:34.150Z,26.37
2022-12-09T11:17:13.722Z,27.77
2022-12-09T11:19:42.766Z,27.73
2022-12-09T11:22:15.269Z,27.00
2022-12-09T11:24:44.063Z,26.87
2022-12-09T11:27:28.194Z,25.93
2022-12-09T11:30:15.412Z,28.20
2022-12-09T11:32:59.716Z,27.57
2022-12-09T11:35:31.280Z,27.90
2022-12-09T11:38:00.803Z,27.17
2022-12-09T11:40:30.473Z,28.13
2022-12-09T11:43:00.328Z,26.70
2022-12-09T11:45:30.831Z,27.13
2022-12-09T11:48:27.535Z,26.80
2022-12-09T11:50:55.620Z,26.87
2022-12-09T11:53:30.915Z,29.40
2022-12-09T11:56:02.651Z,29.20
2022-12-09T11:58:37.101Z,27.70
2022-12-09T12:01:07.944Z,27.33
2022-12-09T12:03:38.822Z,27.93
2022-12-09T12:06:09.893Z,29.40
2022-12-09T12:08:43.644Z,29.93
2022-12-09T12:11:15.533Z,28.77
2022-12-09T12:13:46.715Z,27.23
2022-12-09T12:16:19.722Z,29.57
2022-12-09T12:18:49.791Z,29.63
2022-12-09T12:21:22.889Z,28.73
2022-12-09T12:24:15.083Z,29.80
2022-12-09T12:26:46.565Z,27.63
2022-12-09T12:29:25.578Z,28.00
2022-12-09T12:32:08.417Z,28.13
2022-12-09T12:34:41.534Z,28.67
2022-12-09T12:37:18.979Z,30.37
2022-12-09T12:39:52.581Z,28.17
2022-12-09T12:42:31.102Z,29.23
2022-12-09T12:45:21.459Z,29.73
2022-12-09T12:47:56.366Z,29.60
2022-12-09T12:50:45.677Z,28.50
2022-12-09T12:53:27.666Z,29.73
2022-12-09T12:56:05.254Z,27.73
2022-12-09T12:58:41.130Z,28.97
2022-12-09T13:01:20.392Z,30.33
2022-12-09T13:04:04.943Z,28.27
2022-12-09T13:06:40.341Z,30.23
2022-12-09T13:09:42.003Z,28.83
2022-12-09T13:12:45.300Z,28.33
2022-12-09T13:15:38.788Z,28.83
2022-12-09T13:18:40.857Z,28.07
2022-12-09T13:21:28.641Z,28.63
2022-12-09T13:24:31.167Z,30.00
2022-12-09T13:27:23.427Z,28.43
2022-12-09T13:29:59.318Z,30.10
2022-12-09T13:35:23.678Z,30.43
2022-12-09T13:37:59.825Z,30.03
2022-12-09T13:40:30.821Z,29.17
2022-12-09T13:43:08.531Z,29.73
2022-12-09T13:45:37.935Z,30.33
2022-12-09T13:48:14.816Z,29.30
2022-12-09T13:50:57.131Z,29.83
2022-12-09T13:53:27.464Z,30.30
2022-12-09T13:55:58.426Z,31.70
2022-12-09T13:58:50.823Z,31.83
2022-12-09T14:01:22.424Z,31.30
2022-12-09T14:03:57.435Z,32.00
2022-12-09T14:06:28.473Z,32.63
2022-12-09T14:08:58.049Z,31.60
2022-12-09T14:11:41.122Z,31.97
2022-12-09T14:14:27.315Z,29.90
2022-12-09T14:16:56.467Z,31.40
2022-12-09T14:19:43.579Z,32.23
2022-12-09T14:22:30.788Z,33.03
2022-12-09T14:25:00.866Z,33.03
2022-12-09T14:27:30.114Z,32.30
2022-12-09T14:29:59.154Z,31.60
2022-12-09T14:32:29.060Z,32.73
2022-12-09T14:35:01.734Z,34.17
2022-12-09T14:37:44.944Z,35.07
2022-12-09T14:40:43.196Z,33.73
2022-12-09T14:43:17.409Z,31.63
2022-12-09T14:45:49.515Z,32.70
2022-12-09T14:48:21.127Z,33.90
2022-12-09T14:50:49.404Z,33.53
2022-12-09T14:53:23.190Z,32.57
2022-12-09T14:55:51.643Z,31.13
2022-12-09T14:58:22.702Z,31.87
2022-12-09T15:00:59.569Z,31.87
2022-12-09T15:03:34.298Z,31.37
2022-12-09T15:06:06.377Z,32.67
2022-12-09T15:08:35.361Z,34.90
2022-12-09T15:11:07.380Z,32.47
2022-12-09T15:13:37.683Z,35.90
2022-12-09T15:16:08.914Z,32.53
2022-12-09T15:18:39.716Z,34.03
2022-12-09T15:21:10.865Z,30.73
2022-12-09T15:23:40.014Z,30.17
2022-12-09T15:26:09.160Z,31.27
2022-12-09T15:28:39.137Z,33.07
2022-12-09T15:31:08.282Z,32.97
2022-12-09T15:33:40.551Z,35.47
2022-12-09T15:36:10.745Z,35.07
2022-12-09T15:38:41.714Z,32.17
2022-12-09T15:41:29.036Z,33.03
2022-12-09T15:44:01.345Z,33.23
2022-12-09T15:46:30.149Z,33.27
2022-12-09T15:48:59.481Z,31.77
2022-12-09T15:51:28.420Z,31.70
2022-12-09T15:53:58.266Z,31.33
2022-12-09T15:56:28.343Z,30.03
2022-12-09T15:58:59.606Z,31.37
2022-12-09T16:01:33.588Z,32.23
2022-12-09T16:04:04.339Z,31.67
2022-12-09T16:06:36.817Z,30.53
2022-12-09T16:09:13.398Z,30.13
2022-12-09T16:11:42.834Z,30.23
2022-12-09T16:14:11.655Z,33.93
2022-12-09T16:16:46.137Z,30.93
2022-12-09T16:19:27.916Z,29.17
2022-12-09T16:21:57.329Z,29.07
2022-12-09T16:24:28.257Z,32.00
2022-12-09T16:27:07.765Z,30.50
2022-12-09T16:29:37.085Z,31.63
2022-12-09T16:32:18.289Z,32.03
2022-12-09T16:34:48.525Z,30.23
2022-12-09T16:37:24.491Z,32.37
2022-12-09T16:39:52.788Z,31.93
2022-12-09T16:42:23.073Z,32.00
2022-12-09T16:44:51.432Z,31.23
2022-12-09T16:47:24.220Z,32.23
2022-12-09T16:49:54.105Z,33.13
2022-12-09T16:52:23.621Z,31.93
2022-12-09T16:54:52.336Z,31.57
2022-12-09T16:57:21.764Z,31.20
2022-12-09T16:59:50.938Z,32.00
2022-12-09T17:02:23.045Z,34.43
2022-12-09T17:04:57.948Z,32.77
2022-12-09T17:07:26.257Z,34.43
2022-12-09T17:09:54.573Z,32.33
2022-12-09T17:12:23.136Z,30.60
2022-12-09T17:14:51.862Z,31.30
2022-12-09T17:17:21.638Z,34.63
2022-12-09T17:19:51.308Z,31.03
2022-12-09T17:22:19.925Z,31.40
2022-12-09T17:24:48.205Z,32.87
2022-12-09T17:27:16.588Z,31.97
2022-12-09T17:29:46.142Z,34.77
2022-12-09T17:32:14.505Z,32.63
2022-12-09T17:34:46.897Z,34.63
2022-12-09T17:37:15.117Z,34.70
2022-12-09T17:39:43.602Z,33.57
2022-12-09T17:42:11.975Z,31.30
2022-12-09T17:44:40.226Z,33.60
2022-12-09T17:47:08.733Z,32.93
2022-12-09T17:49:37.017Z,34.50
2022-12-09T17:52:06.659Z,30.60
2022-12-09T17:54:35.002Z,31.47
2022-12-09T17:57:03.292Z,32.00
2022-12-09T17:59:32.034Z,30.90
2022-12-09T18:02:03.547Z,32.27
2022-12-09T18:04:32.373Z,33.50
2022-12-09T18:07:01.968Z,37.17
2022-12-09T18:09:31.802Z,38.53
2022-12-09T18:12:01.669Z,33.20
2022-12-09T18:14:32.458Z,32.47
2022-12-09T18:17:00.847Z,32.27
2022-12-09T18:19:35.091Z,31.57
2022-12-09T18:22:03.456Z,31.87
2022-12-09T18:24:33.358Z,30.87
2022-12-09T18:27:01.776Z,30.77
2022-12-09T18:29:30.855Z,31.50
2022-12-09T18:32:02.939Z,33.87
2022-12-09T18:34:35.630Z,33.07
2022-12-09T18:37:04.148Z,32.77
2022-12-09T18:39:34.296Z,30.23
2022-12-09T18:42:03.265Z,33.23
2022-12-09T18:44:34.106Z,32.43
2022-12-09T18:47:02.586Z,33.50
2022-12-09T18:49:32.004Z,34.87
2022-12-09T18:52:00.253Z,33.60
2022-12-09T18:54:31.066Z,35.47
2022-12-09T18:57:03.795Z,33.90
2022-12-09T18:59:32.432Z,32.17
2022-12-09T19:02:00.732Z,31.73
2022-12-09T19:04:30.147Z,34.00
2022-12-09T19:07:00.093Z,33.20
2022-12-09T19:09:31.756Z,33.33
2022-12-09T19:12:30.173Z,32.10
2022-12-09T19:14:52.421Z,32.57
2022-12-09T19:17:23.136Z,32.47
2022-12-09T19:19:51.398Z,33.47
2022-12-09T19:22:19.640Z,32.77
2022-12-09T19:24:47.922Z,34.27
2022-12-09T19:27:19.051Z,35.27
2022-12-09T19:29:47.349Z,34.10
2022-12-09T19:32:50.873Z,33.93
2022-12-09T19:35:04.013Z,32.17
2022-12-09T19:37:35.182Z,33.83
2022-12-09T19:40:06.180Z,33.70
2022-12-09T19:42:36.840Z,33.47
2022-12-09T19:45:09.064Z,35.97
2022-12-09T19:47:40.585Z,36.23
2022-12-09T19:50:11.291Z,35.90
2022-12-09T19:52:39.626Z,35.90
2022-12-09T19:55:09.458Z,33.43
2022-12-09T19:57:48.205Z,32.70
2022-12-09T20:00:20.653Z,30.03
2022-12-09T20:02:50.783Z,34.10
2022-12-09T20:05:26.462Z,34.07
2022-12-09T20:07:55.065Z,31.27
2022-12-09T20:10:23.347Z,31.30
2022-12-09T20:12:53.099Z,32.43
2022-12-09T20:15:21.524Z,35.53
2022-12-09T20:17:49.906Z,32.73
2022-12-09T20:20:18.301Z,32.27
2022-12-09T20:22:46.604Z,32.23
2022-12-09T20:25:15.032Z,30.70
2022-12-09T20:27:43.514Z,29.33
2022-12-09T20:30:14.042Z,20.87
2022-12-09T20:32:43.911Z,20.70
2022-12-09T20:35:12.717Z,24.37
2022-12-09T20:37:41.029Z,25.27
2022-12-09T20:40:10.211Z,26.27
2022-12-09T20:42:39.172Z,26.63
2022-12-09T20:45:09.701Z,25.20
2022-12-09T20:47:39.519Z,25.87
2022-12-09T20:50:08.710Z,22.07
2022-12-09T20:52:37.261Z,18.10
2022-12-09T20:55:06.261Z,13.60
2022-12-09T20:57:34.674Z,16.00
2022-12-09T21:00:03.119Z,14.07
2022-12-09T21:02:38.392Z,17.90
2022-12-09T21:05:08.743Z,19.70
2022-12-09T21:07:37.231Z,16.40
2022-12-09T21:10:06.269Z,16.50
2022-12-09T21:12:35.194Z,16.37
2022-12-09T21:15:05.838Z,17.80
2022-12-09T21:17:34.171Z,16.27
2022-12-09T21:20:02.800Z,18.47
2022-12-09T21:22:36.138Z,19.60
2022-12-09T21:25:04.603Z,14.83
2022-12-09T21:27:32.958Z,15.27
2022-12-09T21:30:01.742Z,15.90
2022-12-09T21:32:30.360Z,21.27
2022-12-09T21:35:02.036Z,17.37
2022-12-09T21:37:31.942Z,17.63
2022-12-09T21:40:00.568Z,16.80
2022-12-09T21:42:29.371Z,19.23
2022-12-09T21:44:58.067Z,21.10
2022-12-09T21:47:26.568Z,22.03
2022-12-09T21:49:55.102Z,19.17
2022-12-09T21:52:23.677Z,15.20
2022-12-09T21:54:55.497Z,15.97
2022-12-09T21:57:24.193Z,16.70
2022-12-09T21:59:52.826Z,17.17
2022-12-09T22:02:21.346Z,16.80
2022-12-09T22:04:49.669Z,17.70
2022-12-09T22:07:18.053Z,17.27
2022-12-09T22:09:46.672Z,17.93
2022-12-09T22:12:16.717Z,17.23
2022-12-09T22:14:45.219Z,16.53
2022-12-09T22:17:13.573Z,18.67
2022-12-09T22:19:42.031Z,18.13
2022-12-09T22:22:10.567Z,19.73
2022-12-09T22:24:39.102Z,18.97
2022-12-09T22:27:07.534Z,21.63
2022-12-09T22:29:37.438Z,20.30
2022-12-09T22:32:05.919Z,20.73
2022-12-09T22:34:34.236Z,14.67
2022-12-09T22:37:21.110Z,14.63
2022-12-09T22:39:51.095Z,14.27
2022-12-09T22:42:19.606Z,16.80
2022-12-09T22:44:49.353Z,15.17
2022-12-09T22:47:17.847Z,18.00
2022-12-09T22:49:46.334Z,19.43
2022-12-09T22:52:14.969Z,16.90
2022-12-09T22:54:43.712Z,17.53
2022-12-09T22:57:12.010Z,14.93
2022-12-09T22:59:43.087Z,16.07
2022-12-09T23:02:13.711Z,16.20
2022-12-09T23:04:42.442Z,15.33
2022-12-09T23:07:10.822Z,14.00
2022-12-09T23:09:39.374Z,16.17
2022-12-09T23:12:08.039Z,16.17
2022-12-09T23:14:36.525Z,14.63
2022-12-09T23:17:04.899Z,15.17
2022-12-09T23:19:35.068Z,15.43
2022-12-09T23:22:03.474Z,15.10
2022-12-09T23:24:31.882Z,17.00
2022-12-09T23:27:00.364Z,16.80
2022-12-09T23:29:28.800Z,14.80
2022-12-09T23:31:57.287Z,14.63
2022-12-09T23:34:25.757Z,15.27
2022-12-09T23:36:56.093Z,14.50
2022-12-09T23:39:24.651Z,15.10
2022-12-09T23:41:53.231Z,13.63
2022-12-09T23:44:21.674Z,17.80
2022-12-09T23:46:50.280Z,17.20
2022-12-09T23:49:19.322Z,16.00
2022-12-09T23:51:47.978Z,20.23
2022-12-09T23:54:18.476Z,20.43
2022-12-09T23:56:50.875Z,20.77
2022-12-09T23:59:21.017Z,21.67
